createdAt,value
2023-04-28T00:06:41.636Z,1.77
2023-04-28T00:16:46.433Z,1.40
2023-04-28T00:26:49.568Z,1.63
2023-04-28T00:36:53.968Z,1.77
2023-04-28T00:46:57.785Z,2.30
2023-04-28T00:57:03.229Z,2.57
2023-04-28T01:07:06.431Z,2.30
2023-04-28T01:17:12.120Z,2.10
2023-04-28T01:27:17.747Z,2.30
2023-04-28T01:37:20.922Z,3.00
2023-04-28T01:47:26.104Z,2.90
2023-04-28T01:57:29.590Z,3.17
2023-04-28T02:07:35.213Z,2.77
2023-04-28T02:17:39.873Z,2.73
2023-04-28T02:39:52.158Z,4.67
2023-04-28T02:49:57.212Z,3.30
2023-04-28T03:00:01.788Z,4.67
2023-04-28T03:10:11.582Z,4.47
2023-04-28T03:20:16.624Z,4.40
2023-04-28T03:30:20.943Z,4.63
2023-04-28T03:40:25.985Z,4.83
2023-04-28T03:50:47.179Z,4.70
2023-04-28T04:00:52.114Z,5.27
2023-04-28T04:10:56.172Z,5.67
2023-04-28T04:21:00.725Z,4.83
2023-04-28T04:31:04.583Z,5.47
2023-04-28T04:41:09.271Z,5.43
2023-04-28T04:51:12.563Z,4.40
2023-04-28T05:01:17.111Z,4.90
2023-04-28T05:11:20.555Z,5.17
2023-04-28T05:21:25.036Z,4.73
2023-04-28T05:31:28.119Z,5.93
2023-04-28T05:41:32.782Z,5.20
2023-04-28T05:51:35.874Z,4.57
2023-04-28T06:01:40.405Z,4.50
2023-04-28T06:11:43.398Z,4.07
2023-04-28T06:21:50.456Z,4.50
2023-04-28T06:31:57.846Z,5.13
2023-04-28T06:42:03.226Z,4.73
2023-04-28T06:52:09.677Z,5.07
2023-04-28T07:02:15.024Z,4.53
2023-04-28T07:12:19.161Z,5.07
2023-04-28T07:22:23.599Z,4.30
2023-04-28T07:32:30.471Z,4.10
2023-04-28T07:42:34.469Z,4.70
2023-04-28T07:52:38.205Z,4.23
2023-04-28T08:02:42.651Z,4.03
2023-04-28T08:12:46.495Z,4.30
2023-04-28T08:22:50.646Z,3.90
2023-04-28T08:32:54.149Z,3.20
2023-04-28T08:42:58.531Z,2.67
2023-04-28T08:53:05.467Z,3.17
2023-04-28T09:03:10.279Z,3.93
2023-04-28T09:13:26.236Z,3.30
2023-04-28T09:23:30.759Z,3.27
2023-04-28T09:33:33.789Z,3.27
2023-04-28T09:43:38.737Z,3.07
2023-04-28T09:53:44.283Z,3.33
2023-04-28T10:03:51.181Z,3.47
2023-04-28T10:13:55.360Z,2.00
2023-04-28T10:24:11.424Z,2.27
2023-04-28T10:34:24.529Z,3.20
2023-04-28T10:44:44.287Z,3.30
2023-04-28T10:55:28.830Z,2.40
2023-04-28T11:05:34.740Z,2.00
2023-04-28T11:15:37.604Z,1.73
2023-04-28T11:36:09.377Z,2.90
2023-04-28T11:46:17.994Z,3.00
2023-04-28T11:56:22.557Z,3.40
2023-04-28T12:06:25.647Z,2.20
2023-04-28T12:16:48.558Z,1.53
2023-04-28T12:26:51.718Z,2.90
2023-04-28T12:36:56.185Z,2.30
2023-04-28T12:46:59.162Z,1.50
2023-04-28T12:57:04.066Z,1.67
2023-04-28T13:07:07.875Z,0.70
2023-04-28T13:17:13.701Z,0.50
2023-04-28T13:27:16.809Z,1.00
2023-04-28T13:37:21.248Z,1.20
2023-04-28T13:47:24.621Z,2.10
2023-04-28T13:57:29.075Z,1.30
2023-04-28T14:07:31.782Z,2.70
2023-04-28T14:17:36.677Z,2.50
2023-04-28T14:27:40.511Z,2.43
2023-04-28T14:37:45.245Z,1.93
2023-04-28T14:47:48.722Z,2.03
2023-04-28T14:57:53.262Z,0.90
2023-04-28T15:07:57.264Z,0.50
2023-04-28T15:18:02.258Z,0.60
2023-04-28T15:28:07.234Z,0.50
2023-04-28T15:38:12.262Z,0.40
2023-04-28T15:48:15.634Z,0.80
2023-04-28T15:58:20.494Z,0.60
2023-04-28T16:08:25.416Z,0.20
2023-04-28T16:18:30.293Z,0.10
2023-04-28T16:28:33.552Z,0.40
2023-04-28T16:38:38.207Z,0.83
2023-04-28T16:48:41.174Z,1.27
2023-04-28T16:58:45.410Z,0.90
2023-04-28T17:08:50.643Z,0.90
2023-04-28T17:18:55.294Z,0.70
2023-04-28T17:28:59.973Z,0.70
2023-04-28T17:39:05.148Z,0.70
2023-04-28T17:49:08.640Z,0.60
2023-04-28T17:59:14.513Z,0.60
2023-04-28T18:09:17.872Z,0.43
2023-04-28T18:19:23.412Z,0.47
2023-04-28T18:29:26.665Z,0.50
2023-04-28T18:39:30.998Z,0.50
2023-04-28T18:49:34.704Z,0.40
2023-04-28T18:59:40.118Z,0.60
2023-04-28T19:09:43.379Z,0.60
2023-04-28T19:19:48.139Z,0.60
2023-04-28T19:29:52.409Z,0.67
2023-04-28T19:39:57.074Z,0.90
2023-04-28T19:50:00.143Z,0.60
2023-04-28T20:00:05.189Z,0.50
2023-04-28T20:10:12.823Z,0.40
2023-04-28T20:20:17.109Z,0.50
2023-04-28T20:30:23.858Z,0.90
2023-04-28T20:40:28.350Z,0.50
2023-04-28T20:50:33.458Z,0.67
2023-04-28T21:00:40.521Z,0.70
2023-04-28T21:10:43.735Z,0.63
2023-04-28T21:20:48.341Z,0.70
2023-04-28T21:30:52.967Z,0.60
2023-04-28T21:40:58.211Z,0.63
2023-04-28T21:51:01.723Z,0.60
2023-04-28T22:01:07.962Z,0.70
2023-04-28T22:11:11.471Z,0.60
2023-04-28T22:21:16.008Z,0.90
2023-04-28T22:31:18.875Z,1.73
2023-04-28T22:41:24.658Z,1.93
2023-04-28T22:51:28.816Z,3.17
2023-04-28T23:01:33.397Z,2.10
2023-04-28T23:11:37.000Z,2.10
2023-04-28T23:21:41.273Z,3.00
2023-04-28T23:31:44.061Z,5.10
2023-04-28T23:41:48.248Z,6.17
2023-04-28T23:51:51.291Z,5.10
